Time;durP1;ratioP1;P1;durP2;ratioP2;P2;SDS_P1;SDS_P2;PMS_P1;PMS_P2;Temp;Humidity;BMP_temperature;BMP_pressure;BME280_temperature;BME280_humidity;BME280_pressure;Samples;Min_cycle;Max_cycle;Signal;HPM_P1;HPM_P2
2022/12/11 00:00:25;;;;;;;29.48;19.32;;;;;;;3.77;99.93;98627.38;1772015;81;20993;-72
2022/12/11 00:02:52;;;;;;;29.37;20.05;;;;;;;3.73;100.00;98621.14;1771018;81;21232;-71
2022/12/11 00:05:19;;;;;;;25.80;18.55;;;;;;;3.75;99.88;98610.48;1771139;81;20957;-73
2022/12/11 00:07:45;;;;;;;28.15;18.45;;;;;;;3.82;99.13;98607.56;1768642;81;21008;-69
2022/12/11 00:10:12;;;;;;;37.93;20.65;;;;;;;3.81;98.85;98619.56;1752863;80;21059;-71
2022/12/11 00:12:39;;;;;;;35.23;19.63;;;;;;;3.77;99.12;98616.41;1781822;80;21003;-73
2022/12/11 00:15:06;;;;;;;30.62;18.87;;;;;;;3.74;99.08;98620.64;1751005;82;21236;-70
2022/12/11 00:17:33;;;;;;;33.53;20.43;;;;;;;3.69;98.41;98614.54;1751018;81;20987;-74
2022/12/11 00:19:59;;;;;;;38.45;21.12;;;;;;;3.74;97.76;98620.64;1751021;82;21058;-70
2022/12/11 00:22:26;;;;;;;35.20;19.77;;;;;;;3.67;97.60;98616.50;1752361;80;20996;-73
2022/12/11 00:24:52;;;;;;;44.75;21.35;;;;;;;3.58;97.80;98616.08;1718131;80;21038;-73
2022/12/11 00:27:19;;;;;;;40.43;22.93;;;;;;;3.47;97.69;98609.73;1748166;81;22044;-75
2022/12/11 00:29:47;;;;;;;34.63;19.57;;;;;;;3.44;97.48;98617.91;1761268;81;20917;-76
2022/12/11 00:32:14;;;;;;;37.42;20.70;;;;;;;3.48;97.01;98615.34;1772248;81;20988;-70
2022/12/11 00:34:41;;;;;;;40.63;22.65;;;;;;;3.45;97.04;98595.94;1773041;81;20941;-73
2022/12/11 00:37:08;;;;;;;40.83;21.25;;;;;;;3.40;97.30;98590.30;1769691;81;21183;-74
2022/12/11 00:39:35;;;;;;;34.05;21.17;;;;;;;3.33;97.35;98587.47;1747336;81;21211;-73
2022/12/11 00:42:02;;;;;;;31.15;20.32;;;;;;;3.37;97.70;98587.50;1720700;81;21000;-75
2022/12/11 00:44:28;;;;;;;51.85;27.52;;;;;;;3.53;97.93;98581.56;1769676;81;21031;-73
2022/12/11 00:46:55;;;;;;;54.42;29.48;;;;;;;3.56;97.97;98578.64;1768948;81;20991;-74
2022/12/11 00:49:21;;;;;;;72.87;31.45;;;;;;;3.54;98.38;98581.91;1769519;81;20959;-75
2022/12/11 00:51:47;;;;;;;79.30;47.55;;;;;;;3.51;98.80;98572.52;1769559;81;21037;-73
2022/12/11 00:54:14;;;;;;;87.80;56.77;;;;;;;3.56;98.76;98559.45;1769806;81;21043;-77
2022/12/11 00:56:41;;;;;;;88.05;52.15;;;;;;;3.65;98.44;98567.70;1769504;81;21051;-75
2022/12/11 00:59:08;;;;;;;95.35;55.45;;;;;;;3.66;98.65;98571.98;1768700;81;21087;-77
2022/12/11 01:01:35;;;;;;;129.32;67.70;;;;;;;3.61;99.06;98571.14;1815515;78;21101;-77
2022/12/11 01:04:01;;;;;;;98.50;58.60;;;;;;;3.61;99.17;98577.71;1815705;79;21791;-76
2022/12/11 01:06:28;;;;;;;83.05;52.13;;;;;;;3.62;98.61;98587.72;1803362;79;20963;-75
2022/12/11 01:11:41;;;;;;;114.35;55.65;;;;;;;3.59;97.53;98584.89;1784242;80;21002;-76
2022/12/11 01:14:09;;;;;;;111.52;50.90;;;;;;;3.51;97.71;98594.83;1783350;80;21041;-74
2022/12/11 01:16:36;;;;;;;69.45;44.65;;;;;;;3.48;98.23;98599.09;1797582;79;21744;-74
2022/12/11 01:19:02;;;;;;;69.30;43.58;;;;;;;3.56;98.60;98593.09;1754789;80;21083;-75
2022/12/11 01:21:29;;;;;;;76.50;43.15;;;;;;;3.66;97.88;98595.13;1754968;81;21024;-74
2022/12/11 01:23:55;;;;;;;85.28;46.05;;;;;;;3.61;97.32;98588.68;1772067;81;20921;-73
2022/12/11 01:26:22;;;;;;;106.03;47.20;;;;;;;3.53;97.59;98589.44;1814551;79;21022;-73
2022/12/11 01:28:49;;;;;;;60.35;39.90;;;;;;;3.51;97.93;98589.58;1813999;79;21292;-75
2022/12/11 01:31:16;;;;;;;72.20;39.65;;;;;;;3.57;97.81;98586.02;1814469;79;21046;-73
2022/12/11 01:33:43;;;;;;;80.43;42.37;;;;;;;3.66;97.07;98583.31;1798450;79;21041;-74
2022/12/11 01:36:12;;;;;;;86.42;44.58;;;;;;;3.61;96.88;98577.71;1805176;79;21046;-73
2022/12/11 01:38:39;;;;;;;81.30;41.25;;;;;;;3.56;97.03;98573.39;1814067;79;21045;-74
2022/12/11 01:41:06;;;;;;;59.75;38.40;;;;;;;3.50;97.12;98564.31;1797214;79;21164;-76
2022/12/11 01:43:33;;;;;;;60.08;39.13;;;;;;;3.58;97.41;98547.80;1781563;80;21509;-73
2022/12/11 01:46:00;;;;;;;69.58;40.17;;;;;;;3.58;97.41;98547.80;1785125;80;21034;-74
2022/12/11 01:48:29;;;;;;;63.95;37.38;;;;;;;3.56;97.68;98543.19;1782056;80;21049;-76
2022/12/11 01:50:58;;;;;;;53.40;33.33;;;;;;;3.51;98.00;98547.56;1799250;79;21471;-75
2022/12/11 01:53:38;;;;;;;43.95;29.25;;;;;;;3.45;97.91;98545.55;1813795;79;21069;-73
2022/12/11 01:56:05;;;;;;;47.53;32.33;;;;;;;3.43;97.61;98539.63;1781522;80;21037;-73
2022/12/11 01:58:35;;;;;;;49.00;33.48;;;;;;;3.46;97.11;98538.03;1788257;79;21303;-72
2022/12/11 02:01:02;;;;;;;61.13;33.45;;;;;;;3.38;97.31;98539.28;1812586;79;20997;-77
2022/12/11 02:03:29;;;;;;;48.35;27.62;;;;;;;3.27;97.67;98540.33;1801850;79;21546;-76
2022/12/11 02:06:00;;;;;;;43.25;26.20;;;;;;;3.18;97.84;98544.34;1788218;79;21767;-75
2022/12/11 02:08:27;;;;;;;36.63;23.18;;;;;;;3.27;97.84;98534.27;1805895;79;21073;-74
2022/12/11 02:11:05;;;;;;;36.40;20.30;;;;;;;3.27;97.84;98534.27;1754479;80;21007;-75
2022/12/11 02:13:50;;;;;;;31.60;22.05;;;;;;;3.25;98.01;98521.28;1713229;82;21022;-73
2022/12/11 02:16:25;;;;;;;48.00;22.17;;;;;;;3.19;98.48;98527.14;1740359;82;21014;-73
2022/12/11 02:19:02;;;;;;;27.17;19.27;;;;;;;3.12;98.81;98526.91;1739247;82;21103;-75
2022/12/11 02:21:36;;;;;;;28.65;18.65;;;;;;;3.14;98.93;98522.82;1736580;81;21567;-72
2022/12/11 02:24:45;;;;;;;40.40;21.02;;;;;;;3.25;98.74;98520.47;1762925;81;21003;-75
2022/12/11 02:27:29;;;;;;;40.63;22.13;;;;;;;3.23;98.82;98506.67;1737960;81;21522;-74
2022/12/11 02:30:12;;;;;;;47.30;21.35;;;;;;;3.19;99.76;98493.02;1738210;81;21023;-73
2022/12/11 02:32:53;;;;;;;27.80;20.10;;;;;;;3.15;99.86;98486.44;1755014;81;21183;-75
2022/12/11 02:35:30;;;;;;;30.65;22.13;;;;;;;3.21;99.51;98478.45;1743445;81;21068;-73
2022/12/11 02:38:03;;;;;;;44.67;22.75;;;;;;;3.22;99.60;98473.52;1770684;81;21027;-73
2022/12/11 02:40:31;;;;;;;52.35;22.77;;;;;;;3.22;99.60;98473.52;1767739;79;21494;-74
2022/12/11 02:43:01;;;;;;;31.90;22.48;;;;;;;3.18;99.89;98458.55;1765573;80;21130;-76
2022/12/11 02:45:28;;;;;;;29.70;20.90;;;;;;;3.14;100.00;98456.72;1764099;81;21597;-73
2022/12/11 02:47:56;;;;;;;27.77;19.48;;;;;;;3.23;99.67;98451.55;1763792;81;21552;-75
2022/12/11 02:50:23;;;;;;;40.00;21.17;;;;;;;3.27;99.43;98441.90;1763983;81;21014;-75
2022/12/11 02:52:51;;;;;;;51.13;21.62;;;;;;;3.25;99.67;98439.10;1789652;80;21025;-74
2022/12/11 02:55:17;;;;;;;31.23;20.52;;;;;;;3.21;99.70;98442.52;1770693;80;21068;-75
2022/12/11 02:57:51;;;;;;;31.37;21.35;;;;;;;3.22;99.78;98438.08;1792523;80;22054;-77
2022/12/11 03:00:18;;;;;;;38.38;21.42;;;;;;;3.33;99.63;98426.03;1763806;80;20993;-72
2022/12/11 03:02:44;;;;;;;65.32;23.38;;;;;;;3.34;99.76;98421.94;1764525;80;20994;-78
2022/12/11 03:05:11;;;;;;;68.30;24.77;;;;;;;3.29;99.98;98416.32;1740821;81;21591;-77
2022/12/11 03:07:40;;;;;;;32.88;19.87;;;;;;;3.25;100.00;98414.98;1763797;81;21042;-74
2022/12/11 03:10:10;;;;;;;33.08;21.62;;;;;;;3.31;100.00;98413.05;1764988;81;21249;-74
2022/12/11 03:12:39;;;;;;;41.88;19.32;;;;;;;3.41;99.79;98412.95;1765261;81;21568;-75
2022/12/11 03:15:09;;;;;;;44.60;20.82;;;;;;;3.38;99.64;98398.83;1770119;80;21049;-72
2022/12/11 03:18:00;;;;;;;62.88;22.05;;;;;;;3.30;99.90;98396.98;1795151;80;21045;-74
2022/12/11 03:20:40;;;;;;;26.97;20.23;;;;;;;3.22;100.00;98389.53;1807900;78;21029;-73
2022/12/11 03:23:23;;;;;;;27.10;19.40;;;;;;;3.25;99.53;98393.98;1813589;79;21152;-71
2022/12/11 03:25:58;;;;;;;33.73;20.75;;;;;;;3.25;99.53;98393.98;1813737;79;21553;-71
2022/12/11 03:28:47;;;;;;;40.40;21.95;;;;;;;3.19;99.93;98385.42;1813351;79;21073;-72
2022/12/11 03:31:30;;;;;;;27.60;18.98;;;;;;;3.14;100.00;98387.17;1813153;79;20990;-73
2022/12/11 03:34:02;;;;;;;30.23;18.05;;;;;;;3.15;100.00;98398.52;1782934;79;21014;-74
2022/12/11 03:36:36;;;;;;;33.33;21.25;;;;;;;3.25;100.00;98386.11;1782350;80;21115;-72
2022/12/11 03:39:08;;;;;;;;;;;;;;;3.25;100.00;98388.73;1815198;79;21046;-74
2022/12/11 03:41:35;;;;;;;43.02;20.48;;;;;;;3.11;100.00;98411.12;1816083;79;20201;-75
2022/12/11 03:44:02;;;;;;;29.27;20.92;;;;;;;3.11;100.00;98411.12;1813986;79;21029;-75
2022/12/11 03:46:31;;;;;;;26.85;18.45;;;;;;;3.18;100.00;98408.69;1812758;79;21026;-74
2022/12/11 03:49:02;;;;;;;34.20;18.82;;;;;;;3.27;100.00;98408.27;1812728;79;21172;-74
2022/12/11 03:51:30;;;;;;;35.70;19.20;;;;;;;3.22;100.00;98404.78;1778535;80;21054;-74
2022/12/11 03:53:56;;;;;;;33.42;19.35;;;;;;;3.18;100.00;98419.19;1770022;81;21064;-73
2022/12/11 03:56:23;;;;;;;22.25;16.02;;;;;;;3.17;100.00;98416.25;1813745;78;21037;-73
2022/12/11 03:58:49;;;;;;;20.52;14.73;;;;;;;3.17;100.00;98416.25;1798616;79;21005;-72
2022/12/11 04:01:16;;;;;;;16.93;12.98;;;;;;;3.26;100.00;98410.05;1785069;79;21253;-72
2022/12/11 04:03:42;;;;;;;20.08;14.15;;;;;;;3.27;100.00;98414.34;1813850;79;21084;-71
2022/12/11 04:06:09;;;;;;;24.43;14.55;;;;;;;3.22;100.00;98411.34;1806465;79;21041;-72
2022/12/11 04:08:36;;;;;;;19.15;14.63;;;;;;;3.17;100.00;98412.77;1783503;80;20987;-72
2022/12/11 04:15:00;;;;;;;23.30;17.15;;;;;;;3.33;100.00;98408.47;1781734;80;21687;-72
2022/12/11 04:16:17;;;;;;;25.37;15.25;;;;;;;3.34;100.00;98393.53;1777703;80;21040;-72
2022/12/11 04:24:16;;;;;;;25.30;15.60;;;;;;;3.26;100.00;98389.55;1735653;82;21504;-72
2022/12/11 04:26:46;;;;;;;35.68;18.75;;;;;;;3.29;99.86;98393.19;1763615;80;21797;-72
2022/12/11 04:29:13;;;;;;;41.92;17.90;;;;;;;3.29;99.86;98393.19;1763945;80;21084;-75
2022/12/11 04:31:40;;;;;;;59.10;21.12;;;;;;;3.22;99.58;98379.84;1764439;80;20985;-72
2022/12/11 04:34:06;;;;;;;28.35;18.80;;;;;;;3.15;99.85;98370.97;1764038;81;21052;-74
2022/12/11 04:36:33;;;;;;;26.42;19.12;;;;;;;3.19;100.00;98378.86;1764392;81;20981;-74
2022/12/11 04:39:00;;;;;;;26.77;18.85;;;;;;;3.29;99.54;98384.00;1785846;80;21528;-74
2022/12/11 04:41:26;;;;;;;31.77;18.20;;;;;;;3.31;100.00;98387.30;1771510;80;21021;-75
2022/12/11 04:43:53;;;;;;;54.80;26.35;;;;;;;3.30;100.00;98387.80;1764229;81;21048;-74
2022/12/11 04:46:21;;;;;;;38.05;26.12;;;;;;;3.25;100.00;98383.48;1764789;80;21566;-74
2022/12/11 04:48:48;;;;;;;30.30;22.73;;;;;;;3.32;100.00;98382.36;1763892;81;20982;-73
2022/12/11 04:51:14;;;;;;;31.62;20.95;;;;;;;3.44;100.00;98377.20;1763723;81;21024;-72
2022/12/11 04:53:41;;;;;;;44.98;21.27;;;;;;;3.44;100.00;98369.33;1763864;80;21012;-75
2022/12/11 04:56:09;;;;;;;70.40;26.20;;;;;;;3.40;100.00;98363.21;1763676;81;21001;-76
2022/12/11 04:58:37;;;;;;;30.43;21.48;;;;;;;3.36;100.00;98361.38;1784131;80;21565;-75
2022/12/11 05:01:17;;;;;;;28.67;21.20;;;;;;;3.32;100.00;98355.65;1776117;80;21001;-74
2022/12/11 05:03:44;;;;;;;32.38;20.77;;;;;;;3.39;100.00;98346.64;1763564;80;21846;-75
2022/12/11 05:06:11;;;;;;;43.87;21.30;;;;;;;3.38;100.00;98343.70;1766154;81;21028;-74
2022/12/11 05:08:39;;;;;;;45.78;20.23;;;;;;;3.30;100.00;98336.61;1764124;80;21008;-75
2022/12/11 05:11:08;;;;;;;23.10;16.12;;;;;;;3.21;100.00;98339.34;1763550;81;21016;-75
2022/12/11 05:13:36;;;;;;;19.90;15.32;;;;;;;3.19;100.00;98340.80;1764431;80;21021;-76
2022/12/11 05:16:04;;;;;;;23.60;16.23;;;;;;;3.24;100.00;98328.02;1763618;80;21840;-73
2022/12/11 05:18:32;;;;;;;31.87;16.73;;;;;;;3.24;100.00;98328.02;1779098;80;21280;-73
2022/12/11 05:21:01;;;;;;;37.53;16.42;;;;;;;3.21;100.00;98334.91;1787645;80;21029;-74
2022/12/11 05:23:28;;;;;;;18.05;14.07;;;;;;;3.16;100.00;98329.30;1753833;80;21017;-75
2022/12/11 05:25:59;;;;;;;22.62;14.40;;;;;;;3.22;100.00;98326.05;1749945;82;21098;-75
2022/12/11 05:28:29;;;;;;;19.23;14.45;;;;;;;3.34;100.00;98320.03;1739778;82;21077;-74
2022/12/11 05:31:01;;;;;;;41.53;17.32;;;;;;;3.37;100.00;98318.91;1740594;81;20984;-75
2022/12/11 05:33:28;;;;;;;35.58;17.85;;;;;;;3.30;100.00;98312.98;1741589;80;21044;-71
2022/12/11 05:35:55;;;;;;;19.57;14.93;;;;;;;3.29;100.00;98308.70;1751483;80;21067;-73
2022/12/11 05:38:22;;;;;;;20.90;14.13;;;;;;;3.33;100.00;98305.28;1718762;83;21044;-75
2022/12/11 05:40:59;;;;;;;26.02;16.67;;;;;;;3.40;100.00;98308.08;1718690;83;21246;-72
2022/12/11 05:43:26;;;;;;;27.20;16.48;;;;;;;3.40;100.00;98308.08;1739589;81;21011;-72
2022/12/11 05:45:53;;;;;;;38.10;18.00;;;;;;;3.33;100.00;98302.66;1739771;81;21083;-75
2022/12/11 05:48:20;;;;;;;21.70;14.13;;;;;;;3.28;100.00;98301.82;1742884;81;21103;-75
2022/12/11 05:50:56;;;;;;;20.20;13.53;;;;;;;3.37;100.00;98290.03;1759238;81;21011;-73
2022/12/11 05:53:23;;;;;;;17.48;13.70;;;;;;;3.37;100.00;98290.03;1763173;81;21503;-73
2022/12/11 05:55:50;;;;;;;32.00;15.30;;;;;;;3.37;100.00;98291.35;1770406;81;21558;-72
2022/12/11 05:58:18;;;;;;;25.97;16.52;;;;;;;3.32;100.00;98291.80;1760953;81;21026;-73
2022/12/11 06:00:45;;;;;;;26.10;16.32;;;;;;;3.28;100.00;98282.60;1759220;81;20989;-74
2022/12/11 06:03:11;;;;;;;22.48;15.63;;;;;;;3.34;100.00;98276.25;1761278;81;21028;-73
2022/12/11 06:05:39;;;;;;;29.42;15.88;;;;;;;3.47;100.00;98278.91;1769346;81;21325;-74
2022/12/11 06:08:07;;;;;;;40.20;16.87;;;;;;;3.43;100.00;98266.59;1770057;81;21505;-71
2022/12/11 06:10:33;;;;;;;30.02;15.48;;;;;;;3.43;100.00;98266.59;1812980;78;20966;-73
2022/12/11 06:13:00;;;;;;;18.45;13.83;;;;;;;3.38;100.00;98262.79;1797565;79;21080;-74
2022/12/11 06:15:27;;;;;;;22.80;14.68;;;;;;;3.40;100.00;98266.92;1804139;79;21014;-74
2022/12/11 06:17:53;;;;;;;23.98;12.98;;;;;;;3.50;100.00;98261.05;1813518;79;21221;-75
2022/12/11 06:20:20;;;;;;;26.95;14.80;;;;;;;3.51;100.00;98263.16;1813690;79;21061;-76
2022/12/11 06:22:46;;;;;;;38.42;15.30;;;;;;;3.42;100.00;98261.02;1798222;79;21062;-73
2022/12/11 06:25:13;;;;;;;22.07;13.45;;;;;;;3.44;100.00;98261.69;1782147;79;21012;-73
2022/12/11 06:27:39;;;;;;;21.75;13.93;;;;;;;3.44;100.00;98261.69;1782102;80;21045;-71
2022/12/11 06:30:08;;;;;;;25.57;15.03;;;;;;;3.50;100.00;98252.34;1781479;79;21022;-71
2022/12/11 06:32:36;;;;;;;27.75;14.40;;;;;;;3.44;100.00;98239.84;1783144;80;21607;-76
2022/12/11 06:35:03;;;;;;;30.08;14.83;;;;;;;3.48;100.00;98252.50;1781823;80;21056;-76
2022/12/11 06:37:30;;;;;;;16.80;13.10;;;;;;;3.45;100.00;98248.87;1781526;80;21092;-74
2022/12/11 06:39:57;;;;;;;20.57;12.60;;;;;;;3.49;100.00;98242.31;1789062;79;21057;-75
2022/12/11 06:42:24;;;;;;;18.80;13.40;;;;;;;3.62;100.00;98240.55;1803707;79;21164;-74
2022/12/11 06:44:50;;;;;;;27.65;13.22;;;;;;;3.70;100.00;98233.19;1813723;79;21022;-74
2022/12/11 06:47:16;;;;;;;30.62;14.03;;;;;;;3.65;100.00;98215.30;1803817;79;21081;-75
2022/12/11 06:49:43;;;;;;;17.32;12.18;;;;;;;3.71;100.00;98215.14;1781753;80;21066;-73
2022/12/11 06:52:10;;;;;;;15.32;11.15;;;;;;;3.79;100.00;98205.14;1781755;80;21075;-74
2022/12/11 06:54:37;;;;;;;17.92;12.98;;;;;;;3.92;100.00;98205.45;1781779;80;21427;-76
2022/12/11 06:57:04;;;;;;;21.27;12.78;;;;;;;3.94;100.00;98210.90;1783025;79;21054;-76
2022/12/11 06:59:31;;;;;;;19.17;12.53;;;;;;;3.92;100.00;98214.66;1786594;79;21025;-75
2022/12/11 07:01:57;;;;;;;13.62;11.45;;;;;;;3.89;100.00;98204.48;1783934;80;21005;-74
2022/12/11 07:04:26;;;;;;;14.23;10.90;;;;;;;3.92;100.00;98198.42;1781980;79;20998;-74
2022/12/11 07:06:52;;;;;;;17.75;11.53;;;;;;;4.02;100.00;98189.06;1781931;80;21861;-72
2022/12/11 07:09:19;;;;;;;18.37;11.60;;;;;;;4.05;100.00;98199.22;1781764;80;21521;-72
2022/12/11 07:11:51;;;;;;;29.57;12.55;;;;;;;4.01;100.00;98184.77;1782207;80;21057;-75
2022/12/11 07:14:19;;;;;;;17.92;11.60;;;;;;;3.96;100.00;98162.60;1779862;79;21026;-75
2022/12/11 07:16:45;;;;;;;13.72;11.33;;;;;;;4.01;100.00;98165.07;1813882;79;20998;-73
2022/12/11 07:19:12;;;;;;;19.62;10.78;;;;;;;4.09;100.00;98167.69;1813668;79;21881;-74
2022/12/11 07:21:39;;;;;;;23.87;11.50;;;;;;;4.12;100.00;98170.50;1787327;79;21462;-75
2022/12/11 07:24:06;;;;;;;19.65;12.03;;;;;;;4.08;100.00;98178.39;1771734;81;21069;-73
2022/12/11 07:26:33;;;;;;;15.88;12.07;;;;;;;4.03;100.00;98174.92;1772121;80;21557;-73
2022/12/11 07:28:59;;;;;;;13.32;10.20;;;;;;;4.07;100.00;98163.09;1773754;81;21404;-71
2022/12/11 07:31:27;;;;;;;14.80;10.45;;;;;;;4.19;100.00;98164.91;1790477;79;21985;-73
2022/12/11 07:34:00;;;;;;;19.98;11.48;;;;;;;4.23;100.00;98164.06;1805390;79;22126;-74
2022/12/11 07:36:27;;;;;;;14.43;11.40;;;;;;;4.18;100.00;98150.62;1777999;79;21002;-73
2022/12/11 07:38:54;;;;;;;13.83;10.30;;;;;;;4.14;100.00;98149.63;1782859;79;21099;-74
2022/12/11 07:41:21;;;;;;;16.80;10.05;;;;;;;4.22;100.00;98146.66;1776114;79;21027;-74
2022/12/11 07:43:51;;;;;;;15.98;10.85;;;;;;;4.31;100.00;98139.91;1790924;79;21057;-73
2022/12/11 07:46:21;;;;;;;23.40;10.93;;;;;;;4.33;100.00;98137.12;1764353;80;21023;-72
2022/12/11 07:48:48;;;;;;;20.08;10.32;;;;;;;4.31;100.00;98136.47;1757863;81;21024;-73
2022/12/11 07:51:18;;;;;;;14.35;9.33;;;;;;;4.37;100.00;98136.30;1754792;81;21097;-75
2022/12/11 07:53:47;;;;;;;16.07;10.23;;;;;;;4.49;100.00;98138.89;1737762;81;21102;-73
2022/12/11 07:56:15;;;;;;;26.60;11.25;;;;;;;4.53;100.00;98134.92;1769936;80;21530;-75
2022/12/11 07:58:42;;;;;;;24.35;11.45;;;;;;;4.50;100.00;98131.30;1728834;81;20994;-73
2022/12/11 08:01:17;;;;;;;15.53;11.20;;;;;;;4.48;100.00;98131.50;1720788;82;20990;-73
2022/12/11 08:03:43;;;;;;;15.78;10.60;;;;;;;4.57;100.00;98117.00;1804246;79;20983;-74
2022/12/11 08:06:10;;;;;;;17.65;10.98;;;;;;;4.68;100.00;98109.56;1796701;79;21069;-73
2022/12/11 08:08:38;;;;;;;33.50;12.28;;;;;;;4.67;100.00;98102.64;1805590;79;21189;-73
2022/12/11 08:11:07;;;;;;;14.90;11.78;;;;;;;4.63;100.00;98105.80;1804149;79;21030;-73
2022/12/11 08:13:35;;;;;;;19.40;12.53;;;;;;;4.62;100.00;98108.94;1792976;79;21014;-74
2022/12/11 08:16:07;;;;;;;22.60;13.90;;;;;;;4.68;100.00;98099.04;1773618;81;20960;-72
2022/12/11 08:18:35;;;;;;;28.27;13.95;;;;;;;4.64;100.00;98091.16;1774717;79;21090;-75
2022/12/11 08:21:11;;;;;;;19.60;13.50;;;;;;;4.56;100.00;98087.73;1780992;79;21113;-76
2022/12/11 08:23:38;;;;;;;17.20;11.43;;;;;;;4.55;100.00;98081.66;1795520;79;20998;-72
2022/12/11 08:26:07;;;;;;;16.60;11.63;;;;;;;4.63;100.00;98074.23;1816407;79;21009;-73
2022/12/11 08:28:33;;;;;;;24.55;12.75;;;;;;;4.63;100.00;98064.52;1815264;79;21537;-76
2022/12/11 08:31:05;;;;;;;21.33;12.30;;;;;;;4.60;100.00;98060.13;1813899;79;21021;-73
2022/12/11 08:33:32;;;;;;;13.93;11.70;;;;;;;4.55;100.00;98060.62;1787576;79;21145;-73
2022/12/11 08:36:06;;;;;;;18.48;10.98;;;;;;;4.60;100.00;98060.13;1789135;79;21015;-74
2022/12/11 08:38:33;;;;;;;;;;;;;;;4.70;100.00;98052.34;1807049;79;21020;-74
2022/12/11 08:41:12;;;;;;;31.95;12.43;;;;;;;4.75;100.00;98047.05;1773996;79;20172;-74
2022/12/11 08:43:38;;;;;;;17.50;11.20;;;;;;;4.68;100.00;98036.41;1789607;79;21068;-75
2022/12/11 08:46:06;;;;;;;15.48;10.82;;;;;;;4.64;100.00;98025.41;1793481;79;21129;-70
2022/12/11 08:48:33;;;;;;;15.55;10.95;;;;;;;4.72;100.00;98023.23;1781485;79;21577;-70
2022/12/11 08:51:01;;;;;;;18.75;11.12;;;;;;;4.85;100.00;98016.10;1798428;79;21366;-69
2022/12/11 08:53:31;;;;;;;20.20;11.50;;;;;;;4.89;100.00;98014.76;1789427;79;22093;-68
2022/12/11 08:56:03;;;;;;;14.60;10.98;;;;;;;4.87;100.00;98009.66;1799831;79;21061;-68
2022/12/11 08:58:30;;;;;;;18.00;10.88;;;;;;;4.91;100.00;98007.50;1813661;79;21153;-68
2022/12/11 09:00:58;;;;;;;17.75;11.22;;;;;;;5.03;100.00;97996.89;1801652;79;21010;-68
2022/12/11 09:03:24;;;;;;;21.80;12.60;;;;;;;5.09;100.00;97992.73;1781471;79;21544;-69
2022/12/11 09:05:51;;;;;;;20.20;11.68;;;;;;;5.09;100.00;97987.47;1799061;79;21054;-71
2022/12/11 09:08:18;;;;;;;15.98;9.63;;;;;;;5.10;100.00;97978.09;1782521;79;21009;-68
2022/12/11 09:10:44;;;;;;;17.23;10.23;;;;;;;5.24;100.00;97975.17;1810668;79;21802;-70
2022/12/11 09:13:12;;;;;;;26.95;11.70;;;;;;;5.29;100.00;97965.42;1804698;79;21062;-70
2022/12/11 09:15:41;;;;;;;17.42;11.15;;;;;;;5.26;100.00;97961.84;1813700;79;21073;-70
2022/12/11 09:18:08;;;;;;;16.42;10.10;;;;;;;5.29;100.00;97957.05;1813654;79;21497;-69
2022/12/11 09:20:34;;;;;;;19.35;11.90;;;;;;;5.41;100.00;97953.95;1813665;79;21033;-70
2022/12/11 09:23:02;;;;;;;24.37;12.30;;;;;;;5.46;100.00;97941.89;1788803;79;21539;-69
2022/12/11 09:25:28;;;;;;;19.80;11.40;;;;;;;5.45;100.00;97942.91;1795630;79;21502;-67
2022/12/11 09:27:56;;;;;;;13.50;10.08;;;;;;;5.45;100.00;97942.09;1813654;79;21010;-67
2022/12/11 09:30:22;;;;;;;11.88;9.93;;;;;;;5.56;100.00;97925.82;1789022;79;21081;-68
2022/12/11 09:32:49;;;;;;;13.62;10.35;;;;;;;5.68;100.00;97916.49;1781647;80;21041;-70
2022/12/11 09:35:16;;;;;;;14.28;9.20;;;;;;;5.76;100.00;97910.31;1797778;79;21200;-70
2022/12/11 09:37:43;;;;;;;14.15;11.25;;;;;;;5.80;100.00;97901.55;1813461;79;21585;-69
2022/12/11 09:40:11;;;;;;;11.78;9.85;;;;;;;5.90;100.00;97904.20;1809482;79;21684;-69
2022/12/11 09:42:52;;;;;;;13.08;10.23;;;;;;;6.04;100.00;97905.22;1781728;80;21002;-70
2022/12/11 09:45:18;;;;;;;12.90;9.80;;;;;;;6.15;100.00;97901.30;1781895;80;21117;-70
2022/12/11 09:47:49;;;;;;;12.10;8.93;;;;;;;6.18;100.00;97888.24;1798964;79;21948;-72
2022/12/11 09:50:25;;;;;;;10.35;8.95;;;;;;;6.28;100.00;97886.14;1813657;79;21679;-71
2022/12/11 09:53:01;;;;;;;10.70;8.78;;;;;;;6.43;100.00;97888.72;1813541;79;21049;-71
2022/12/11 09:55:57;;;;;;;10.18;8.33;;;;;;;6.51;100.00;97872.80;1813512;79;21490;-70
2022/12/11 09:58:54;;;;;;;10.18;9.05;;;;;;;6.53;100.00;97872.58;1769463;81;21078;-70
2022/12/11 10:01:51;;;;;;;9.18;8.05;;;;;;;6.66;100.00;97856.88;1796553;79;21605;-72
2022/12/11 10:04:29;;;;;;;13.22;8.85;;;;;;;6.78;100.00;97851.91;1773488;79;21555;-72
2022/12/11 10:07:15;;;;;;;11.10;8.35;;;;;;;6.76;100.00;97840.25;1765151;81;21484;-70
2022/12/11 10:10:24;;;;;;;10.45;7.35;;;;;;;6.82;100.00;97826.80;1765044;81;21056;-70
2022/12/11 10:13:02;;;;;;;11.00;8.53;;;;;;;6.93;100.00;97814.88;1764832;81;21068;-70
2022/12/11 10:15:39;;;;;;;10.35;7.33;;;;;;;6.96;100.00;97824.56;1765287;81;21157;-68
2022/12/11 10:18:12;;;;;;;10.13;8.28;;;;;;;6.94;100.00;97817.34;1764837;81;21029;-72
2022/12/11 10:20:41;;;;;;;8.68;7.78;;;;;;;7.02;100.00;97805.30;1778652;79;21579;-69
2022/12/11 10:23:11;;;;;;;10.08;8.18;;;;;;;7.09;100.00;97798.25;1796738;79;21014;-71
2022/12/11 10:25:48;;;;;;;15.25;8.90;;;;;;;7.13;100.00;97796.05;1796405;79;21062;-71
2022/12/11 10:28:17;;;;;;;9.48;7.62;;;;;;;7.09;100.00;97794.29;1793585;79;22206;-69
2022/12/11 10:30:51;;;;;;;8.10;7.17;;;;;;;7.16;100.00;97783.75;1795871;79;21029;-71
2022/12/11 10:33:50;;;;;;;8.23;7.28;;;;;;;7.24;100.00;97770.90;1792296;79;21055;-72
2022/12/11 10:37:45;;;;;;;7.30;6.17;;;;;;;7.27;100.00;97758.13;1784889;79;28098;-70
2022/12/11 10:40:12;;;;;;;6.95;5.78;;;;;;;7.23;100.00;97750.28;1735504;81;20938;-73
2022/12/11 10:42:39;;;;;;;7.05;5.95;;;;;;;7.32;100.00;97745.67;1735423;82;21271;-71
2022/12/11 10:45:07;;;;;;;8.83;7.33;;;;;;;7.36;100.00;97745.58;1747532;81;21504;-71
2022/12/11 10:47:34;;;;;;;6.33;5.65;;;;;;;7.33;100.00;97729.31;1765821;81;20965;-72
2022/12/11 10:50:02;;;;;;;6.73;5.57;;;;;;;7.31;100.00;97726.86;1766159;80;21036;-72
2022/12/11 10:52:37;;;;;;;5.65;4.83;;;;;;;7.39;100.00;97718.76;1797211;79;21052;-70
2022/12/11 10:55:08;;;;;;;6.40;5.80;;;;;;;7.47;100.00;97715.13;1759251;79;21132;-70
2022/12/11 10:57:37;;;;;;;6.45;5.65;;;;;;;7.45;100.00;97719.80;1743621;82;20997;-70
2022/12/11 11:00:05;;;;;;;5.70;5.10;;;;;;;7.43;100.00;97712.06;1764238;79;20987;-72
2022/12/11 11:02:39;;;;;;;6.22;5.12;;;;;;;7.51;100.00;97706.30;1728217;82;21013;-72
2022/12/11 11:05:18;;;;;;;6.25;5.50;;;;;;;7.59;100.00;97706.95;1758739;81;21017;-71
2022/12/11 11:07:46;;;;;;;6.60;5.95;;;;;;;7.65;100.00;97702.70;1756006;80;21076;-69
2022/12/11 11:10:16;;;;;;;8.38;5.58;;;;;;;7.63;100.00;97698.94;1728546;83;21103;-72
2022/12/11 11:12:47;;;;;;;6.40;5.58;;;;;;;7.69;100.00;97707.90;1760266;80;21063;-73
2022/12/11 11:15:26;;;;;;;7.00;5.55;;;;;;;7.76;100.00;97701.30;1727038;83;21544;-69
2022/12/11 11:17:56;;;;;;;5.20;4.42;;;;;;;7.81;100.00;97681.70;1728911;81;21104;-72
2022/12/11 11:20:28;;;;;;;6.25;5.60;;;;;;;7.84;100.00;97674.66;1756526;81;21112;-69
2022/12/11 11:22:57;;;;;;;6.03;5.42;;;;;;;7.84;100.00;97661.45;1758957;81;21603;-69
2022/12/11 11:25:27;;;;;;;5.62;4.53;;;;;;;7.86;100.00;97677.92;1737710;82;21489;-71
2022/12/11 11:28:03;;;;;;;5.55;5.05;;;;;;;7.97;100.00;97672.56;1741713;79;21087;-73
2022/12/11 11:30:40;;;;;;;5.33;4.83;;;;;;;8.02;100.00;97657.72;1768346;81;21005;-73
2022/12/11 11:33:17;;;;;;;5.08;4.58;;;;;;;8.03;100.00;97647.95;1768151;80;21146;-71
2022/12/11 11:35:57;;;;;;;4.65;4.08;;;;;;;8.11;100.00;97642.96;1778641;80;20994;-71
2022/12/11 11:38:43;;;;;;;4.75;4.30;;;;;;;8.14;100.00;97638.60;1761881;81;22034;-71
2022/12/11 11:41:33;;;;;;;5.30;4.33;;;;;;;8.16;100.00;97640.02;1752992;80;21309;-71
2022/12/11 11:44:02;;;;;;;4.50;3.95;;;;;;;8.16;100.00;97640.02;1733355;82;21559;-71
2022/12/11 11:46:46;;;;;;;4.87;4.20;;;;;;;8.23;100.00;97631.58;1747071;82;21972;-72